createdAt,value
2018-09-02T00:01:46.175Z,3.70
2018-09-02T00:04:17.351Z,3.90
2018-09-02T00:07:51.475Z,4.07
2018-09-02T00:10:22.974Z,3.80
2018-09-02T00:12:54.686Z,4.30
2018-09-02T00:15:26.451Z,4.30
2018-09-02T00:17:58.057Z,4.20
2018-09-02T00:20:29.411Z,4.33
2018-09-02T00:23:00.755Z,4.33
2018-09-02T00:25:31.763Z,4.53
2018-09-02T00:28:03.921Z,4.13
2018-09-02T00:30:34.905Z,3.90
2018-09-02T00:33:05.977Z,4.00
2018-09-02T00:35:37.304Z,4.10
2018-09-02T00:38:08.337Z,4.30
2018-09-02T00:40:40.307Z,3.57
2018-09-02T00:43:11.694Z,4.00
2018-09-02T00:45:43.458Z,4.07
2018-09-02T00:48:14.807Z,3.97
2018-09-02T00:50:46.019Z,4.30
2018-09-02T00:53:17.190Z,4.20
2018-09-02T00:55:48.230Z,4.07
2018-09-02T00:58:19.576Z,4.10
2018-09-02T01:00:50.790Z,4.30
2018-09-02T01:03:22.091Z,4.20
2018-09-02T01:05:53.334Z,4.13
2018-09-02T01:08:25.024Z,4.10
2018-09-02T01:10:57.130Z,4.10
2018-09-02T01:13:28.103Z,4.27
2018-09-02T01:15:59.654Z,4.27
2018-09-02T01:18:30.700Z,4.60
2018-09-02T01:21:02.066Z,4.37
2018-09-02T01:23:33.096Z,4.50
2018-09-02T01:26:04.107Z,4.00
2018-09-02T01:28:35.479Z,4.33
2018-09-02T01:31:07.396Z,4.53
2018-09-02T01:33:38.668Z,4.10
2018-09-02T01:36:10.326Z,4.23
2018-09-02T01:38:41.402Z,4.23
2018-09-02T01:41:12.683Z,4.30
2018-09-02T01:43:44.268Z,4.30
2018-09-02T01:46:15.380Z,4.50
2018-09-02T01:48:46.360Z,4.40
2018-09-02T01:51:17.770Z,4.07
2018-09-02T01:53:48.759Z,4.00
2018-09-02T01:56:20.248Z,4.50
2018-09-02T01:58:52.510Z,4.40
2018-09-02T02:01:23.708Z,4.23
2018-09-02T02:03:54.823Z,4.27
2018-09-02T02:06:26.072Z,4.20
2018-09-02T02:08:57.395Z,4.13
2018-09-02T02:11:28.511Z,4.33
2018-09-02T02:13:59.839Z,4.37
2018-09-02T02:16:31.060Z,4.63
2018-09-02T02:19:02.255Z,3.90
2018-09-02T02:21:33.438Z,4.50
2018-09-02T02:24:04.622Z,4.50
2018-09-02T02:26:35.816Z,4.30
2018-09-02T02:29:07.283Z,4.60
2018-09-02T02:31:38.632Z,4.43
2018-09-02T02:34:09.777Z,4.80
2018-09-02T02:36:40.800Z,4.70
2018-09-02T02:39:12.814Z,4.60
2018-09-02T02:41:45.204Z,4.80
2018-09-02T02:44:16.515Z,4.60
2018-09-02T02:46:47.689Z,4.60
2018-09-02T02:49:18.955Z,4.80
2018-09-02T02:51:50.379Z,4.57
2018-09-02T02:54:21.702Z,4.57
2018-09-02T02:56:53.049Z,4.70
2018-09-02T02:59:24.040Z,4.83
2018-09-02T03:01:55.075Z,5.10
2018-09-02T03:04:26.063Z,4.80
2018-09-02T03:06:57.243Z,4.83
2018-09-02T03:09:28.360Z,4.60
2018-09-02T03:12:00.483Z,4.90
2018-09-02T03:14:31.805Z,4.63
2018-09-02T03:17:03.821Z,4.50
2018-09-02T03:19:34.988Z,4.77
2018-09-02T03:22:06.391Z,4.60
2018-09-02T03:24:37.726Z,4.97
2018-09-02T03:27:08.927Z,4.50
2018-09-02T03:29:40.171Z,5.00
2018-09-02T03:32:11.351Z,4.87
2018-09-02T03:34:42.695Z,5.10
2018-09-02T03:37:13.814Z,5.27
2018-09-02T03:39:44.951Z,4.43
2018-09-02T03:42:16.357Z,4.83
2018-09-02T03:44:47.808Z,5.00
2018-09-02T03:47:18.947Z,4.50
2018-09-02T03:49:50.079Z,4.37
2018-09-02T03:52:21.439Z,4.60
2018-09-02T03:54:52.425Z,4.80
2018-09-02T03:57:23.683Z,4.67
2018-09-02T03:59:55.163Z,4.53
2018-09-02T04:02:26.462Z,4.83
2018-09-02T04:04:57.620Z,4.80
2018-09-02T04:07:28.596Z,4.67
2018-09-02T04:09:59.806Z,5.00
2018-09-02T04:12:31.016Z,4.90
2018-09-02T04:15:02.387Z,4.47
2018-09-02T04:17:33.374Z,4.57
2018-09-02T04:20:04.931Z,4.80
2018-09-02T04:22:36.144Z,4.83
2018-09-02T04:25:07.372Z,4.87
2018-09-02T04:27:38.737Z,5.10
2018-09-02T04:30:10.047Z,5.07
2018-09-02T04:32:41.780Z,4.50
2018-09-02T04:35:13.124Z,5.40
2018-09-02T04:37:44.547Z,5.63
2018-09-02T04:40:15.842Z,5.20
2018-09-02T04:42:47.223Z,4.80
2018-09-02T04:45:18.707Z,4.97
2018-09-02T04:47:49.831Z,5.10
2018-09-02T04:50:21.697Z,5.30
2018-09-02T04:52:53.286Z,4.87
2018-09-02T04:55:24.390Z,4.90
2018-09-02T04:57:55.370Z,4.70
2018-09-02T05:00:26.698Z,4.90
2018-09-02T05:02:57.979Z,5.00
2018-09-02T05:05:28.957Z,4.70
2018-09-02T05:08:00.817Z,5.27
2018-09-02T05:10:32.118Z,5.00
2018-09-02T05:13:03.378Z,5.53
2018-09-02T05:15:34.712Z,5.33
2018-09-02T05:18:06.415Z,5.03
2018-09-02T05:20:37.685Z,4.80
2018-09-02T05:23:08.660Z,4.97
2018-09-02T05:25:40.046Z,4.93
2018-09-02T05:28:11.248Z,4.50
2018-09-02T05:30:42.599Z,4.87
2018-09-02T05:33:13.963Z,4.53
2018-09-02T05:35:45.039Z,4.80
2018-09-02T05:38:16.131Z,4.80
2018-09-02T05:40:47.391Z,4.90
2018-09-02T05:43:18.737Z,5.30
2018-09-02T05:45:49.837Z,5.33
2018-09-02T05:48:21.184Z,5.13
2018-09-02T05:50:52.159Z,4.97
2018-09-02T05:53:23.407Z,5.30
2018-09-02T05:55:54.567Z,5.43
2018-09-02T05:58:25.750Z,5.10
2018-09-02T06:00:57.045Z,5.80
2018-09-02T06:03:28.305Z,5.67
2018-09-02T06:05:59.639Z,6.03
2018-09-02T06:08:30.950Z,5.60
2018-09-02T06:11:02.610Z,5.07
2018-09-02T06:13:33.750Z,5.70
2018-09-02T06:16:05.143Z,5.03
2018-09-02T06:18:36.301Z,5.20
2018-09-02T06:21:07.639Z,5.63
2018-09-02T06:23:38.723Z,5.53
2018-09-02T06:26:10.049Z,4.80
2018-09-02T06:28:41.441Z,4.97
2018-09-02T06:31:13.095Z,5.03
2018-09-02T06:33:44.188Z,5.30
2018-09-02T06:36:15.486Z,4.67
2018-09-02T06:38:46.791Z,4.80
2018-09-02T06:41:17.860Z,5.07
2018-09-02T06:43:48.968Z,4.97
2018-09-02T06:46:20.223Z,11.90
2018-09-02T06:48:51.368Z,4.80
2018-09-02T06:51:22.820Z,4.87
2018-09-02T06:53:54.111Z,4.90
2018-09-02T06:56:25.111Z,4.70
2018-09-02T06:58:56.657Z,5.40
2018-09-02T07:01:27.888Z,4.80
2018-09-02T07:03:58.925Z,4.90
2018-09-02T07:06:30.430Z,4.90
2018-09-02T07:09:03.062Z,4.90
2018-09-02T07:11:34.818Z,4.43
2018-09-02T07:14:06.067Z,5.23
2018-09-02T07:16:37.231Z,4.90
2018-09-02T07:19:08.423Z,4.90
2018-09-02T07:21:39.408Z,4.63
2018-09-02T07:24:10.436Z,4.77
2018-09-02T07:26:41.795Z,4.83
2018-09-02T07:29:12.976Z,5.00
2018-09-02T07:31:44.382Z,4.87
2018-09-02T07:34:15.592Z,4.83
2018-09-02T07:36:47.606Z,5.17
2018-09-02T07:39:18.737Z,5.00
2018-09-02T07:41:50.111Z,5.00
2018-09-02T07:44:21.327Z,5.20
2018-09-02T07:46:52.518Z,4.97
2018-09-02T07:49:23.686Z,4.80
2018-09-02T07:51:54.867Z,4.77
2018-09-02T07:54:25.946Z,5.00
2018-09-02T07:56:57.255Z,4.90
2018-09-02T07:59:28.500Z,4.83
2018-09-02T08:01:59.656Z,4.70
2018-09-02T08:04:30.853Z,4.93
2018-09-02T08:07:02.376Z,4.20
2018-09-02T08:09:33.412Z,4.70
2018-09-02T08:12:04.678Z,4.83
2018-09-02T08:14:35.824Z,4.13
2018-09-02T08:17:07.450Z,4.80
2018-09-02T08:19:38.591Z,4.80
2018-09-02T08:22:09.743Z,4.23
2018-09-02T08:24:40.772Z,4.43
2018-09-02T08:27:11.970Z,4.77
2018-09-02T08:29:43.153Z,5.13
2018-09-02T08:32:14.163Z,4.80
2018-09-02T08:34:49.140Z,4.13
2018-09-02T08:37:20.594Z,4.47
2018-09-02T08:39:52.136Z,4.70
2018-09-02T08:42:23.241Z,4.30
2018-09-02T08:44:54.220Z,4.53
2018-09-02T08:47:25.461Z,4.67
2018-09-02T08:49:56.816Z,4.77
2018-09-02T08:52:28.002Z,4.30
2018-09-02T08:54:59.095Z,4.40
2018-09-02T08:57:30.463Z,4.40
2018-09-02T09:00:02.184Z,4.20
2018-09-02T09:02:33.346Z,3.90
2018-09-02T09:05:04.446Z,4.23
2018-09-02T09:07:35.719Z,4.33
2018-09-02T09:10:08.007Z,3.83
2018-09-02T09:12:39.576Z,4.10
2018-09-02T09:15:10.880Z,4.20
2018-09-02T09:17:42.107Z,4.63
2018-09-02T09:20:13.304Z,3.80
2018-09-02T09:22:44.595Z,4.10
2018-09-02T09:25:15.874Z,4.40
2018-09-02T09:27:47.248Z,3.90
2018-09-02T09:30:18.968Z,4.10
2018-09-02T09:32:50.483Z,3.70
2018-09-02T09:35:21.822Z,3.80
2018-09-02T09:37:52.953Z,3.37
2018-09-02T09:40:24.196Z,3.90
2018-09-02T09:42:55.565Z,3.67
2018-09-02T09:45:26.772Z,3.73
2018-09-02T09:47:58.520Z,3.43
2018-09-02T09:50:29.524Z,3.23
2018-09-02T09:53:00.545Z,3.30
2018-09-02T09:55:35.674Z,3.10
2018-09-02T09:58:07.127Z,3.20
2018-09-02T10:00:43.249Z,3.00
2018-09-02T10:03:14.712Z,3.47
2018-09-02T10:05:45.951Z,3.10
2018-09-02T10:08:17.201Z,3.23
2018-09-02T10:10:48.371Z,3.40
2018-09-02T10:13:19.517Z,3.23
2018-09-02T10:15:50.726Z,3.10
2018-09-02T10:18:21.903Z,3.00
2018-09-02T10:20:53.268Z,3.00
2018-09-02T10:23:24.672Z,2.63
2018-09-02T10:25:55.695Z,2.90
2018-09-02T10:28:27.111Z,3.30
2018-09-02T10:30:58.281Z,2.83
2018-09-02T10:33:29.675Z,2.97
2018-09-02T10:36:00.903Z,3.00
2018-09-02T10:38:32.392Z,3.07
2018-09-02T10:41:03.467Z,3.03
2018-09-02T10:43:34.803Z,2.80
2018-09-02T10:46:06.435Z,2.87
2018-09-02T10:48:38.053Z,2.97
2018-09-02T10:51:09.372Z,2.90
2018-09-02T10:53:40.795Z,2.87
2018-09-02T10:56:11.951Z,2.90
2018-09-02T10:58:43.132Z,2.80
2018-09-02T11:01:14.135Z,3.30
2018-09-02T11:03:45.123Z,2.98
2018-09-02T11:06:16.309Z,3.25
2018-09-02T11:08:47.434Z,2.98
2018-09-02T11:11:18.555Z,3.10
2018-09-02T11:13:50.114Z,3.00
2018-09-02T11:16:21.090Z,3.12
2018-09-02T11:18:52.268Z,3.33
2018-09-02T11:21:23.388Z,3.25
2018-09-02T11:23:54.634Z,3.40
2018-09-02T11:26:25.829Z,3.22
2018-09-02T11:28:57.027Z,3.52
2018-09-02T11:31:28.230Z,3.10
2018-09-02T11:33:59.285Z,3.60
2018-09-02T11:36:30.576Z,3.20
2018-09-02T11:39:02.415Z,3.30
2018-09-02T11:41:34.026Z,3.05
2018-09-02T11:44:05.415Z,3.20
2018-09-02T11:46:36.589Z,3.33
2018-09-02T11:49:08.035Z,3.45
2018-09-02T11:51:39.408Z,3.05
2018-09-02T11:54:10.707Z,3.50
2018-09-02T11:56:41.709Z,3.30
2018-09-02T11:59:12.909Z,3.22
2018-09-02T12:01:44.653Z,3.10
2018-09-02T12:04:15.881Z,3.27
2018-09-02T12:06:47.046Z,3.58
2018-09-02T12:09:18.516Z,3.20
2018-09-02T12:11:50.037Z,3.50
2018-09-02T12:14:21.035Z,3.02
2018-09-02T12:16:52.705Z,3.30
2018-09-02T12:19:24.056Z,3.52
2018-09-02T12:21:55.339Z,3.50
2018-09-02T12:24:26.587Z,3.47
2018-09-02T12:26:57.782Z,3.30
2018-09-02T12:29:28.775Z,3.25
2018-09-02T12:31:59.944Z,3.25
2018-09-02T12:34:31.165Z,2.98
2018-09-02T12:37:02.336Z,3.22
2018-09-02T12:39:33.619Z,3.40
2018-09-02T12:42:05.039Z,3.30
2018-09-02T12:44:36.611Z,3.17
2018-09-02T12:47:07.717Z,3.27
2018-09-02T12:49:39.478Z,3.20
2018-09-02T12:52:10.504Z,3.60
2018-09-02T12:54:42.120Z,3.42
2018-09-02T12:57:13.308Z,3.10
2018-09-02T12:59:45.063Z,3.50
2018-09-02T13:02:16.716Z,2.97
2018-09-02T13:04:47.992Z,2.85
2018-09-02T13:07:19.015Z,3.08
2018-09-02T13:09:50.214Z,3.00
2018-09-02T13:12:21.421Z,2.92
2018-09-02T13:14:53.155Z,3.08
2018-09-02T13:18:27.084Z,2.90
2018-09-02T13:20:58.335Z,2.90
2018-09-02T13:23:29.669Z,2.95
2018-09-02T13:26:01.133Z,3.22
2018-09-02T13:28:32.723Z,3.02
2018-09-02T13:31:04.495Z,2.90
2018-09-02T13:33:35.640Z,3.05
2018-09-02T13:36:06.847Z,2.90
2018-09-02T13:38:38.237Z,2.83
2018-09-02T13:41:09.587Z,3.20
2018-09-02T13:43:40.829Z,2.85
2018-09-02T13:46:12.019Z,3.02
2018-09-02T13:48:43.391Z,2.98
2018-09-02T13:51:14.759Z,2.90
2018-09-02T13:53:45.917Z,3.60
2018-09-02T13:56:17.129Z,2.93
2018-09-02T13:58:48.259Z,3.30
2018-09-02T14:01:20.463Z,2.98
2018-09-02T14:03:51.983Z,3.00
2018-09-02T14:06:23.306Z,2.97
2018-09-02T14:08:54.471Z,3.20
2018-09-02T14:11:25.462Z,3.03
2018-09-02T14:13:56.439Z,2.95
2018-09-02T14:16:27.452Z,3.12
2018-09-02T14:18:58.626Z,3.17
2018-09-02T14:21:29.823Z,3.30
2018-09-02T14:24:01.020Z,3.15
2018-09-02T14:26:32.286Z,3.10
2018-09-02T14:29:03.419Z,3.03
2018-09-02T14:31:34.455Z,2.93
2018-09-02T14:34:06.275Z,3.07
2018-09-02T14:36:37.577Z,2.90
2018-09-02T14:39:12.710Z,3.00
2018-09-02T14:41:44.009Z,2.70
2018-09-02T14:44:15.291Z,3.00
2018-09-02T14:46:46.642Z,2.97
2018-09-02T14:49:17.861Z,2.90
2018-09-02T14:51:49.032Z,3.00
2018-09-02T14:54:20.532Z,3.20
2018-09-02T14:56:51.706Z,3.53
2018-09-02T14:59:22.995Z,3.07
2018-09-02T15:01:54.235Z,2.93
2018-09-02T15:04:25.892Z,3.20
2018-09-02T15:07:01.106Z,2.90
2018-09-02T15:09:32.276Z,3.00
2018-09-02T15:12:03.507Z,3.13
2018-09-02T15:14:34.862Z,3.00
2018-09-02T15:17:06.064Z,2.67
2018-09-02T15:19:37.261Z,2.80
2018-09-02T15:22:08.465Z,2.90
2018-09-02T15:24:39.650Z,3.10
2018-09-02T15:27:10.703Z,2.77
2018-09-02T15:29:42.035Z,3.10
2018-09-02T15:32:13.548Z,2.97
2018-09-02T15:34:44.827Z,2.80
2018-09-02T15:37:16.036Z,2.90
2018-09-02T15:39:47.399Z,3.27
2018-09-02T15:42:18.436Z,3.23
2018-09-02T15:44:49.676Z,3.10
2018-09-02T15:47:20.763Z,3.03
2018-09-02T15:49:51.964Z,2.80
2018-09-02T15:52:23.515Z,3.30
2018-09-02T15:54:54.715Z,3.13
2018-09-02T15:57:26.009Z,3.00
2018-09-02T15:59:57.315Z,3.10
2018-09-02T16:02:28.814Z,2.93
2018-09-02T16:05:00.121Z,3.30
2018-09-02T16:07:32.472Z,3.10
2018-09-02T16:10:04.135Z,2.80
2018-09-02T16:12:35.480Z,3.03
2018-09-02T16:15:07.028Z,3.07
2018-09-02T16:17:38.223Z,3.00
2018-09-02T16:20:09.795Z,3.00
2018-09-02T16:22:40.828Z,3.10
2018-09-02T16:25:12.170Z,3.00
2018-09-02T16:27:43.368Z,3.20
2018-09-02T16:30:14.415Z,3.13
2018-09-02T16:32:45.918Z,3.20
2018-09-02T16:35:16.964Z,3.00
2018-09-02T16:37:48.146Z,3.23
2018-09-02T16:40:19.145Z,3.03
2018-09-02T16:42:50.499Z,3.50
2018-09-02T16:45:21.696Z,3.03
2018-09-02T16:47:52.889Z,2.73
2018-09-02T16:50:24.379Z,3.50
2018-09-02T16:52:55.771Z,3.47
2018-09-02T16:55:27.078Z,3.33
2018-09-02T16:57:58.063Z,3.20
2018-09-02T17:00:29.483Z,3.83
2018-09-02T17:03:00.831Z,3.50
2018-09-02T17:05:32.025Z,3.00
2018-09-02T17:08:03.208Z,3.50
2018-09-02T17:10:34.710Z,3.40
2018-09-02T17:13:06.116Z,3.00
2018-09-02T17:15:37.387Z,5.33
2018-09-02T17:18:08.554Z,3.17
2018-09-02T17:20:42.203Z,3.23
2018-09-02T17:23:14.591Z,3.20
2018-09-02T17:25:46.110Z,3.00
2018-09-02T17:28:17.271Z,3.17
2018-09-02T17:30:48.467Z,3.10
2018-09-02T17:33:19.968Z,3.00
2018-09-02T17:35:51.219Z,3.50
2018-09-02T17:38:22.306Z,3.70
2018-09-02T17:40:53.622Z,3.07
2018-09-02T17:43:24.861Z,3.20
2018-09-02T17:45:56.257Z,3.80
2018-09-02T17:48:27.420Z,3.67
2018-09-02T17:50:58.871Z,3.60
2018-09-02T17:53:30.167Z,3.27
2018-09-02T17:56:01.392Z,3.23
2018-09-02T17:58:33.051Z,3.60
2018-09-02T18:01:04.973Z,3.60
2018-09-02T18:03:36.143Z,3.10
2018-09-02T18:06:07.406Z,2.97
2018-09-02T18:08:38.804Z,3.30
2018-09-02T18:11:10.756Z,3.27
2018-09-02T18:13:42.127Z,3.23
2018-09-02T18:16:13.412Z,3.30
2018-09-02T18:18:44.885Z,3.80
2018-09-02T18:21:16.028Z,3.97
2018-09-02T18:23:47.256Z,3.73
2018-09-02T18:26:18.419Z,3.60
2018-09-02T18:28:51.017Z,3.97
2018-09-02T18:31:22.411Z,4.23
2018-09-02T18:33:53.739Z,3.93
2018-09-02T18:36:24.885Z,3.90
2018-09-02T18:38:56.131Z,4.23
2018-09-02T18:41:27.176Z,4.00
2018-09-02T18:43:58.767Z,3.90
2018-09-02T18:46:30.077Z,4.40
2018-09-02T18:49:01.326Z,4.27
2018-09-02T18:51:32.300Z,4.00
2018-09-02T18:54:03.491Z,4.20
2018-09-02T18:56:34.690Z,3.80
2018-09-02T18:59:06.888Z,4.00
2018-09-02T19:01:38.066Z,3.90
2018-09-02T19:04:09.253Z,4.13
2018-09-02T19:06:41.294Z,4.00
2018-09-02T19:09:12.425Z,3.60
2018-09-02T19:11:43.420Z,3.40
2018-09-02T19:14:14.709Z,3.30
2018-09-02T19:16:45.994Z,3.63
2018-09-02T19:19:17.009Z,3.70
2018-09-02T19:21:48.363Z,3.37
2018-09-02T19:24:19.590Z,3.50
2018-09-02T19:26:50.583Z,3.93
2018-09-02T19:29:21.888Z,4.03
2018-09-02T19:31:53.167Z,4.03
2018-09-02T19:34:24.360Z,4.33
2018-09-02T19:36:55.556Z,4.13
2018-09-02T19:39:26.955Z,3.73
2018-09-02T19:41:58.358Z,4.40
2018-09-02T19:44:29.706Z,4.30
2018-09-02T19:47:01.548Z,4.17
2018-09-02T19:49:32.873Z,4.33
2018-09-02T19:52:04.909Z,4.20
2018-09-02T19:54:36.705Z,3.67
2018-09-02T19:57:08.292Z,4.13
2018-09-02T19:59:39.437Z,3.70
2018-09-02T20:02:10.808Z,3.63
2018-09-02T20:04:41.992Z,3.70
2018-09-02T20:07:13.176Z,3.70
2018-09-02T20:09:44.323Z,4.10
2018-09-02T20:12:15.475Z,4.20
2018-09-02T20:14:46.813Z,5.03
2018-09-02T20:17:18.163Z,5.60
2018-09-02T20:19:49.512Z,5.40
2018-09-02T20:22:20.551Z,5.20
2018-09-02T20:24:51.694Z,5.07
2018-09-02T20:27:22.930Z,4.83
2018-09-02T20:29:54.103Z,4.50
2018-09-02T20:32:25.503Z,4.37
2018-09-02T20:34:56.678Z,4.80
2018-09-02T20:37:28.340Z,4.50
2018-09-02T20:39:59.650Z,4.53
2018-09-02T20:42:30.905Z,4.77
2018-09-02T20:45:02.663Z,4.73
2018-09-02T20:47:33.988Z,5.33
2018-09-02T20:50:05.302Z,4.70
2018-09-02T20:52:36.381Z,4.90
2018-09-02T20:55:07.679Z,5.80
2018-09-02T20:57:38.842Z,6.13
2018-09-02T21:00:10.072Z,5.23
2018-09-02T21:02:41.675Z,4.93
2018-09-02T21:05:13.091Z,5.10
2018-09-02T21:07:44.331Z,5.03
2018-09-02T21:10:15.987Z,5.00
2018-09-02T21:12:47.127Z,4.67
2018-09-02T21:15:18.519Z,4.87
2018-09-02T21:17:49.685Z,4.80
2018-09-02T21:20:20.875Z,4.60
2018-09-02T21:22:51.872Z,5.13
2018-09-02T21:25:23.083Z,4.67
2018-09-02T21:27:54.260Z,5.47
2018-09-02T21:30:25.456Z,5.30
2018-09-02T21:32:56.610Z,6.03
2018-09-02T21:35:27.800Z,5.17
2018-09-02T21:37:58.871Z,5.47
2018-09-02T21:40:30.016Z,6.03
2018-09-02T21:43:01.020Z,5.70
2018-09-02T21:45:32.403Z,5.70
2018-09-02T21:48:03.828Z,6.03
2018-09-02T21:50:35.269Z,5.67
2018-09-02T21:53:06.864Z,5.57
2018-09-02T21:55:38.162Z,5.60
2018-09-02T21:58:10.176Z,5.50
2018-09-02T22:00:42.460Z,6.13
2018-09-02T22:03:13.692Z,5.63
2018-09-02T22:05:45.366Z,5.80
2018-09-02T22:08:17.685Z,5.60
2018-09-02T22:10:49.046Z,5.40
2018-09-02T22:13:20.218Z,5.83
2018-09-02T22:15:51.564Z,6.40
2018-09-02T22:18:22.608Z,6.20
2018-09-02T22:20:53.811Z,6.53
2018-09-02T22:23:24.996Z,6.80
2018-09-02T22:25:56.438Z,6.80
2018-09-02T22:28:28.052Z,7.97
2018-09-02T22:30:59.364Z,8.17
2018-09-02T22:33:30.664Z,9.67
2018-09-02T22:36:01.943Z,11.53
2018-09-02T22:38:33.222Z,11.47
2018-09-02T22:41:04.455Z,11.17
2018-09-02T22:43:35.996Z,8.00
2018-09-02T22:46:07.343Z,8.47
2018-09-02T22:48:38.691Z,9.50
2018-09-02T22:51:09.883Z,9.67
2018-09-02T22:53:41.352Z,9.30
2018-09-02T22:56:12.449Z,7.77
2018-09-02T22:58:43.639Z,6.47
2018-09-02T23:01:14.793Z,6.17
2018-09-02T23:03:46.693Z,5.90
2018-09-02T23:06:18.015Z,6.10
2018-09-02T23:08:49.383Z,6.60
2018-09-02T23:11:20.384Z,6.10
2018-09-02T23:13:52.431Z,6.50
2018-09-02T23:16:23.795Z,6.33
2018-09-02T23:18:55.403Z,6.67
2018-09-02T23:21:26.734Z,6.93
2018-09-02T23:23:58.393Z,6.37
2018-09-02T23:26:29.947Z,6.30
2018-09-02T23:29:02.528Z,6.33
2018-09-02T23:31:33.847Z,6.13
2018-09-02T23:34:05.036Z,6.13
2018-09-02T23:36:36.079Z,6.47
2018-09-02T23:39:11.161Z,6.60
2018-09-02T23:41:42.241Z,7.13
2018-09-02T23:44:13.342Z,7.77
2018-09-02T23:46:44.401Z,8.80
2018-09-02T23:49:15.368Z,8.83
2018-09-02T23:51:46.986Z,8.67
2018-09-02T23:54:18.127Z,9.20
2018-09-02T23:56:49.274Z,9.07
2018-09-02T23:59:20.535Z,8.43
